Terminal Aerodrome Forecast
Issued by NWS Sioux Falls, SD

Home | Current Version | Previous Version | Graphics & Text | Print | Product List | Glossary On
Versions: 1 2 3 4 5 6 7 8 9 10 11 12
000
FTUS43 KFSD 022340
TAFHON
TAF
KHON 022340Z 0300/0324 17016G25KT P6SM SCT250
     FM030100 18012KT P6SM BKN050
     FM030800 20007KT P6SM BKN100
     FM031500 36010KT P6SM BKN150=

USA.gov is the U.S. government's official web portal to all federal, state and local government web resources and services.